createdAt,value
2019-02-21T10:27:02.843Z,11.00
2019-02-21T10:29:31.925Z,10.30
2019-02-21T10:32:02.699Z,10.40
2019-02-21T10:34:42.456Z,10.40
2019-02-21T10:37:03.198Z,10.50
2019-02-21T10:39:32.744Z,10.50
2019-02-21T10:42:04.104Z,10.50
2019-02-21T10:44:33.471Z,10.50
2019-02-21T10:47:02.752Z,10.60
2019-02-21T10:49:32.084Z,10.70
2019-02-21T10:52:02.339Z,10.80
2019-02-21T10:54:31.746Z,10.90
2019-02-21T10:59:45.921Z,11.10
2019-02-21T11:02:06.655Z,11.10
2019-02-21T11:04:42.095Z,11.30
2019-02-21T11:07:10.506Z,11.30
2019-02-21T11:09:58.927Z,11.40
2019-02-21T11:12:31.536Z,11.20
2019-02-21T11:15:00.627Z,11.10
2019-02-21T11:17:31.614Z,11.00
2019-02-21T11:20:12.283Z,11.00
2019-02-21T11:22:41.500Z,10.80
2019-02-21T11:25:10.680Z,10.70
2019-02-21T11:27:39.628Z,10.60
2019-02-21T11:30:11.945Z,10.60
2019-02-21T11:32:40.889Z,10.40
2019-02-21T11:35:10.340Z,10.40
2019-02-21T11:37:43.368Z,10.40
2019-02-21T11:40:11.644Z,10.50
2019-02-21T11:42:40.952Z,10.70
2019-02-21T11:45:12.048Z,10.70
2019-02-21T11:47:41.021Z,10.80
2019-02-21T11:50:11.552Z,10.90
2019-02-21T11:52:40.585Z,10.80
2019-02-21T11:55:10.676Z,10.90
2019-02-21T11:57:39.826Z,10.90
2019-02-21T12:00:11.569Z,11.00
2019-02-21T12:02:40.560Z,11.10
2019-02-21T12:05:17.099Z,11.10
2019-02-21T12:07:41.144Z,11.10
2019-02-21T12:10:10.563Z,11.10
2019-02-21T12:12:39.877Z,11.00
2019-02-21T12:15:09.749Z,11.00
2019-02-21T12:17:38.977Z,11.10
2019-02-21T12:20:09.948Z,11.20
2019-02-21T12:22:39.090Z,11.30
2019-02-21T12:25:10.057Z,11.30
2019-02-21T12:27:39.032Z,11.30
2019-02-21T12:30:09.624Z,11.30
2019-02-21T12:32:38.581Z,11.40
2019-02-21T12:35:07.817Z,11.50
2019-02-21T12:37:36.777Z,11.50
2019-02-21T12:40:06.418Z,11.80
2019-02-21T12:42:35.389Z,12.10
2019-02-21T12:45:04.665Z,12.30
2019-02-21T12:47:33.572Z,12.30
2019-02-21T12:50:02.553Z,12.30
2019-02-21T12:52:31.533Z,12.40
2019-02-21T12:55:00.566Z,12.50
2019-02-21T12:57:29.785Z,12.50
2019-02-21T12:59:58.677Z,12.40
2019-02-21T13:02:27.797Z,12.40
2019-02-21T13:04:57.017Z,12.40
2019-02-21T13:07:26.273Z,12.40
2019-02-21T13:09:55.265Z,12.40
2019-02-21T13:12:24.242Z,12.40
2019-02-21T13:14:53.213Z,12.30
2019-02-21T13:17:22.189Z,12.30
2019-02-21T13:19:51.198Z,12.30
2019-02-21T13:22:20.270Z,12.20
2019-02-21T13:24:49.238Z,12.20
2019-02-21T13:27:18.130Z,12.10
2019-02-21T13:29:47.165Z,12.10
2019-02-21T13:32:16.402Z,12.10
2019-02-21T13:34:45.290Z,12.00
2019-02-21T13:37:14.434Z,12.00
2019-02-21T13:39:43.405Z,12.00
2019-02-21T13:42:12.290Z,12.10
2019-02-21T13:44:42.080Z,12.10
2019-02-21T13:47:11.128Z,12.10
2019-02-21T13:49:40.047Z,12.10
2019-02-21T13:52:09.227Z,12.20
2019-02-21T13:54:38.418Z,12.30
2019-02-21T13:57:07.310Z,12.40
2019-02-21T13:59:36.282Z,12.50
2019-02-21T14:02:05.314Z,12.40
2019-02-21T14:04:34.294Z,12.30
2019-02-21T14:07:03.290Z,12.20
2019-02-21T14:09:32.263Z,12.20
2019-02-21T14:12:02.586Z,12.20
2019-02-21T14:14:31.515Z,12.20
2019-02-21T14:17:00.544Z,12.20
2019-02-21T14:19:29.587Z,12.20
2019-02-21T14:22:05.379Z,12.20
2019-02-21T14:24:38.974Z,12.20
2019-02-21T14:27:31.733Z,12.20
2019-02-21T14:30:00.843Z,12.30
2019-02-21T14:32:39.787Z,12.30
2019-02-21T14:35:16.823Z,12.30
2019-02-21T14:37:49.087Z,12.30
2019-02-21T14:40:23.421Z,12.30
2019-02-21T14:43:00.680Z,12.30
2019-02-21T14:45:39.039Z,12.30
2019-02-21T14:48:09.229Z,12.30
2019-02-21T14:50:38.936Z,12.30
2019-02-21T14:53:11.812Z,12.30
2019-02-21T14:55:42.082Z,12.30
2019-02-21T14:58:13.353Z,12.30
2019-02-21T15:00:50.179Z,12.20
2019-02-21T15:03:25.992Z,12.20
2019-02-21T15:05:55.723Z,12.20
2019-02-21T15:08:30.583Z,12.20
2019-02-21T15:11:03.392Z,12.30
2019-02-21T15:13:34.229Z,12.30
2019-02-21T15:16:04.050Z,12.30
2019-02-21T15:18:50.201Z,12.30
2019-02-21T15:21:17.325Z,12.20
2019-02-21T15:23:47.497Z,12.20
2019-02-21T15:26:16.456Z,12.30
2019-02-21T15:28:47.772Z,12.20
2019-02-21T15:31:27.876Z,12.20
2019-02-21T15:33:56.940Z,12.20
2019-02-21T15:36:45.832Z,12.20
2019-02-21T15:39:27.828Z,12.20
2019-02-21T15:42:05.716Z,12.20
2019-02-21T15:44:52.996Z,12.10
2019-02-21T15:47:33.321Z,12.10
2019-02-21T15:50:02.894Z,12.10
2019-02-21T15:52:31.861Z,12.00
2019-02-21T15:55:11.966Z,11.90
2019-02-21T15:57:31.916Z,11.90
2019-02-21T16:00:01.313Z,11.80
2019-02-21T16:02:30.376Z,11.80
2019-02-21T16:04:59.377Z,11.80
2019-02-21T16:07:28.676Z,11.80
2019-02-21T16:09:57.753Z,11.70
2019-02-21T16:12:27.677Z,11.70
2019-02-21T16:14:57.164Z,11.80
2019-02-21T16:17:26.149Z,11.70
2019-02-21T16:19:55.121Z,11.70
2019-02-21T16:22:24.525Z,11.70
2019-02-21T16:24:53.496Z,11.70
2019-02-21T16:27:22.473Z,11.70
2019-02-21T16:29:51.355Z,11.70
2019-02-21T16:32:20.422Z,11.60
2019-02-21T16:34:50.633Z,11.60
2019-02-21T16:37:19.695Z,11.70
2019-02-21T16:39:48.926Z,11.70
2019-02-21T16:42:18.108Z,11.60
2019-02-21T16:44:47.085Z,11.60
2019-02-21T16:47:16.168Z,11.60
2019-02-21T16:49:45.941Z,11.60
2019-02-21T16:52:14.949Z,11.60
2019-02-21T16:54:44.053Z,11.60
2019-02-21T16:57:13.075Z,11.50
2019-02-21T16:59:43.338Z,11.50
2019-02-21T17:02:12.925Z,11.50
2019-02-21T17:04:42.042Z,11.50
2019-02-21T17:07:15.203Z,11.50
2019-02-21T17:09:41.797Z,11.50
2019-02-21T17:12:10.914Z,11.40
2019-02-21T17:14:39.833Z,11.40
2019-02-21T17:17:17.969Z,11.30
2019-02-21T17:19:52.605Z,11.30
2019-02-21T17:22:23.621Z,11.30
2019-02-21T17:24:56.090Z,11.30
2019-02-21T17:27:32.849Z,11.20
2019-02-21T17:30:02.439Z,11.10
2019-02-21T17:32:31.413Z,11.10
2019-02-21T17:35:00.483Z,11.10
2019-02-21T17:37:29.466Z,11.10
2019-02-21T17:39:58.457Z,11.00
2019-02-21T17:42:27.599Z,11.00
2019-02-21T17:44:56.678Z,10.90
2019-02-21T17:47:25.725Z,10.80
2019-02-21T17:49:55.056Z,10.80
2019-02-21T17:52:24.324Z,10.80
2019-02-21T17:54:53.615Z,10.80
2019-02-21T17:57:22.579Z,10.80
2019-02-21T17:59:51.670Z,10.80
2019-02-21T18:02:20.690Z,10.80
2019-02-21T18:04:50.960Z,10.70
2019-02-21T18:07:20.482Z,10.70
2019-02-21T18:09:49.470Z,10.70
2019-02-21T18:12:18.782Z,10.60
2019-02-21T18:14:48.090Z,10.60
2019-02-21T18:17:17.174Z,10.60
2019-02-21T18:19:46.166Z,10.60
2019-02-21T18:22:15.646Z,10.60
2019-02-21T18:24:44.703Z,10.60
2019-02-21T18:27:13.730Z,10.50
2019-02-21T18:29:43.809Z,10.50
2019-02-21T18:32:12.954Z,10.50
2019-02-21T18:34:42.014Z,10.50
2019-02-21T18:37:11.112Z,10.50
2019-02-21T18:39:40.467Z,10.50
2019-02-21T18:42:09.630Z,10.50
2019-02-21T18:44:38.694Z,10.50
2019-02-21T18:47:07.847Z,10.50
2019-02-21T18:49:36.987Z,10.50
2019-02-21T18:52:06.070Z,10.40
2019-02-21T18:54:35.090Z,10.50
2019-02-21T18:57:04.123Z,10.50
2019-02-21T18:59:33.947Z,10.50
2019-02-21T19:02:02.911Z,10.50
2019-02-21T19:04:32.048Z,10.50
2019-02-21T19:07:01.091Z,10.50
2019-02-21T19:09:30.279Z,10.40
2019-02-21T19:11:59.347Z,10.40
2019-02-21T19:14:28.743Z,10.30
2019-02-21T19:16:57.732Z,10.30
2019-02-21T19:19:27.079Z,10.30
2019-02-21T19:21:56.063Z,10.30
2019-02-21T19:24:25.303Z,10.30
2019-02-21T19:26:54.335Z,10.30
2019-02-21T19:29:23.467Z,10.30
2019-02-21T19:31:52.607Z,10.30
2019-02-21T19:34:21.595Z,10.30
2019-02-21T19:36:50.631Z,10.30
2019-02-21T19:39:19.767Z,10.30
2019-02-21T19:41:48.763Z,10.20
2019-02-21T19:44:17.848Z,10.20
2019-02-21T19:49:15.490Z,10.30
2019-02-21T19:51:44.584Z,10.20
2019-02-21T19:54:13.571Z,10.10
2019-02-21T19:56:42.844Z,10.10
2019-02-21T19:59:11.856Z,10.00
2019-02-21T20:01:41.016Z,10.10
2019-02-21T20:04:10.218Z,10.00
2019-02-21T20:06:39.269Z,10.00
2019-02-21T20:09:08.424Z,10.00
2019-02-21T20:28:58.131Z,10.00
2019-02-21T20:31:27.041Z,10.00
2019-02-21T20:33:56.037Z,10.00
2019-02-21T20:36:25.209Z,10.00
2019-02-21T20:38:54.481Z,10.00
2019-02-21T20:41:23.533Z,10.00
2019-02-21T20:43:52.613Z,10.00
